createdAt,value
2023-03-02T00:04:10.274Z,9.32
2023-03-02T00:09:13.013Z,8.68
2023-03-02T00:14:17.291Z,9.77
2023-03-02T00:19:20.527Z,8.10
2023-03-02T00:24:23.534Z,8.45
2023-03-02T00:29:28.292Z,8.48
2023-03-02T00:34:32.302Z,9.27
2023-03-02T00:39:35.356Z,9.93
2023-03-02T00:44:39.994Z,9.60
2023-03-02T00:49:45.459Z,9.48
2023-03-02T00:54:48.282Z,9.18
2023-03-02T00:59:53.536Z,9.40
2023-03-02T01:05:14.835Z,8.60
2023-03-02T01:10:17.993Z,9.65
2023-03-02T01:15:22.288Z,8.95
2023-03-02T01:20:25.065Z,10.02
2023-03-02T01:25:28.433Z,10.18
2023-03-02T01:30:32.534Z,8.60
2023-03-02T01:35:35.453Z,9.35
2023-03-02T01:40:38.385Z,9.35
2023-03-02T01:45:53.389Z,9.82
2023-03-02T01:51:08.335Z,9.20
2023-03-02T01:56:11.862Z,10.02
2023-03-02T02:01:17.379Z,8.77
2023-03-02T02:06:24.853Z,9.52
2023-03-02T02:11:28.412Z,9.43
2023-03-02T02:16:34.565Z,10.32
2023-03-02T02:21:37.787Z,9.30
2023-03-02T02:26:46.344Z,9.30
2023-03-02T02:31:54.467Z,10.23
2023-03-02T02:37:04.951Z,8.68
2023-03-02T02:42:16.005Z,10.25
2023-03-02T02:47:22.077Z,8.98
2023-03-02T02:52:27.125Z,9.47
2023-03-02T02:57:32.123Z,8.80
2023-03-02T03:02:40.932Z,9.90
2023-03-02T03:07:44.110Z,10.13
2023-03-02T03:12:48.682Z,10.35
2023-03-02T03:17:56.224Z,10.13
2023-03-02T03:23:00.790Z,13.02
2023-03-02T03:28:07.937Z,13.25
2023-03-02T03:33:11.983Z,13.63
2023-03-02T03:38:15.790Z,14.35
2023-03-02T03:43:20.767Z,14.93
2023-03-02T03:48:28.279Z,15.27
2023-03-02T03:53:31.260Z,12.52
2023-03-02T03:58:35.884Z,11.52
2023-03-02T04:03:39.509Z,11.00
2023-03-02T04:08:42.533Z,11.57
2023-03-02T04:13:48.881Z,13.40
2023-03-02T04:18:52.254Z,12.33
2023-03-02T04:23:55.615Z,13.30
2023-03-02T04:29:00.793Z,21.05
2023-03-02T04:34:05.037Z,19.33
2023-03-02T04:39:09.456Z,14.40
2023-03-02T04:44:14.696Z,17.48
2023-03-02T04:49:19.843Z,16.27
2023-03-02T04:54:25.349Z,13.85
2023-03-02T04:59:30.058Z,11.75
2023-03-02T05:04:32.962Z,13.77
2023-03-02T05:09:35.958Z,14.93
2023-03-02T05:14:40.870Z,15.57
2023-03-02T05:19:43.734Z,19.20
2023-03-02T05:24:46.616Z,18.08
2023-03-02T05:29:50.809Z,14.00
2023-03-02T05:34:53.677Z,13.18
2023-03-02T05:39:56.542Z,12.50
2023-03-02T05:45:01.017Z,11.48
2023-03-02T05:50:04.894Z,12.70
2023-03-02T05:55:10.081Z,13.23
2023-03-02T06:00:16.137Z,12.00
2023-03-02T06:10:25.904Z,12.43
2023-03-02T06:15:30.104Z,11.45
2023-03-02T06:20:32.872Z,11.63
2023-03-02T06:25:42.020Z,12.45
2023-03-02T06:30:47.026Z,17.92
2023-03-02T06:35:50.557Z,17.27
2023-03-02T06:40:56.076Z,22.73
2023-03-02T06:46:02.341Z,24.73
2023-03-02T06:56:10.066Z,15.55
2023-03-02T07:01:14.461Z,15.40
2023-03-02T07:06:18.401Z,14.30
2023-03-02T07:11:24.229Z,15.13
2023-03-02T07:16:29.057Z,15.77
2023-03-02T07:21:32.217Z,15.98
2023-03-02T07:26:37.457Z,17.25
2023-03-02T07:31:44.275Z,16.58
2023-03-02T07:36:49.860Z,14.90
2023-03-02T07:41:53.095Z,14.68
2023-03-02T07:46:59.249Z,12.00
2023-03-02T07:52:02.436Z,12.98
2023-03-02T07:57:05.344Z,12.82
2023-03-02T08:02:15.419Z,15.75
2023-03-02T08:07:18.295Z,13.50
2023-03-02T08:12:22.198Z,11.85
2023-03-02T08:17:27.149Z,11.40
2023-03-02T08:22:31.383Z,11.07
2023-03-02T08:27:34.672Z,13.43
2023-03-02T08:32:39.199Z,12.20
2023-03-02T08:37:42.126Z,13.23
2023-03-02T08:42:44.853Z,12.32
2023-03-02T08:47:49.085Z,12.40
2023-03-02T08:52:52.820Z,10.75
2023-03-02T08:57:55.732Z,11.63
2023-03-02T09:03:00.110Z,11.85
2023-03-02T09:08:03.195Z,11.20
2023-03-02T09:13:08.536Z,12.35
2023-03-02T09:18:12.952Z,21.42
2023-03-02T09:23:15.845Z,11.68
2023-03-02T09:28:19.017Z,24.17
2023-03-02T09:33:23.202Z,22.63
2023-03-02T09:38:27.478Z,11.25
2023-03-02T09:43:44.623Z,12.43
2023-03-02T09:54:08.758Z,11.27
2023-03-02T09:59:22.371Z,12.25
2023-03-02T10:04:29.297Z,13.80
2023-03-02T10:09:32.247Z,13.68
2023-03-02T10:14:42.034Z,11.25
2023-03-02T10:19:52.298Z,19.00
2023-03-02T10:25:08.015Z,12.25
2023-03-02T10:30:22.019Z,11.95
2023-03-02T10:35:31.306Z,12.00
2023-03-02T10:41:03.145Z,11.18
2023-03-02T10:46:08.770Z,11.07
2023-03-02T10:51:23.059Z,9.85
2023-03-02T10:56:26.041Z,8.70
2023-03-02T11:01:28.917Z,9.55
2023-03-02T11:06:33.573Z,9.93
2023-03-02T11:11:37.732Z,9.20
2023-03-02T11:16:40.879Z,10.00
2023-03-02T11:21:51.120Z,10.77
2023-03-02T11:26:58.216Z,10.57
2023-03-02T11:32:10.184Z,9.15
2023-03-02T11:37:19.562Z,9.48
2023-03-02T11:42:26.340Z,8.88
2023-03-02T11:47:33.433Z,8.63
2023-03-02T11:52:42.847Z,9.03
2023-03-02T11:57:49.861Z,10.13
2023-03-02T12:03:04.947Z,10.23
2023-03-02T12:08:25.283Z,11.82
2023-03-02T12:13:34.231Z,12.20
2023-03-02T12:24:04.039Z,7.05
2023-03-02T12:29:23.552Z,6.93
2023-03-02T12:34:38.599Z,8.48
2023-03-02T12:40:13.321Z,7.65
2023-03-02T12:45:31.337Z,6.22
2023-03-02T12:50:39.535Z,6.70
2023-03-02T12:55:45.697Z,6.72
2023-03-02T13:00:53.055Z,6.80
2023-03-02T13:06:02.833Z,5.80
2023-03-02T13:11:07.508Z,6.30
2023-03-02T13:16:22.598Z,6.82
2023-03-02T13:21:30.866Z,6.03
2023-03-02T13:26:39.819Z,4.30
2023-03-02T13:36:47.407Z,6.10
2023-03-02T13:41:56.950Z,5.30
2023-03-02T13:47:01.498Z,4.97
2023-03-02T13:52:09.184Z,4.60
2023-03-02T13:57:17.856Z,4.75
2023-03-02T14:02:25.439Z,6.30
2023-03-02T14:07:28.305Z,4.55
2023-03-02T14:12:33.942Z,5.78
2023-03-02T14:17:38.928Z,5.63
2023-03-02T14:22:42.429Z,4.97
2023-03-02T14:27:48.059Z,5.88
2023-03-02T14:32:51.113Z,4.90
2023-03-02T14:37:56.196Z,6.18
2023-03-02T14:43:00.801Z,6.40
2023-03-02T14:48:03.746Z,6.65
2023-03-02T14:53:17.476Z,6.63
2023-03-02T14:58:32.436Z,6.22
2023-03-02T15:03:35.335Z,10.15
2023-03-02T15:08:38.431Z,7.35
2023-03-02T15:13:45.366Z,6.57
2023-03-02T15:23:52.520Z,5.97
2023-03-02T15:28:58.118Z,6.47
2023-03-02T15:34:00.997Z,6.18
2023-03-02T15:39:04.428Z,8.75
2023-03-02T15:44:09.329Z,6.78
2023-03-02T15:49:12.211Z,9.65
2023-03-02T15:54:15.020Z,7.65
2023-03-02T15:59:19.631Z,6.47
2023-03-02T16:04:26.133Z,6.60
2023-03-02T16:09:30.942Z,5.63
2023-03-02T16:14:36.155Z,6.90
2023-03-02T16:19:42.457Z,5.82
2023-03-02T16:24:45.477Z,6.72
2023-03-02T16:29:49.680Z,6.20
2023-03-02T16:34:55.246Z,5.60
2023-03-02T16:39:58.225Z,5.88
2023-03-02T16:45:02.431Z,7.47
2023-03-02T16:50:07.090Z,7.60
2023-03-02T16:55:16.769Z,5.95
2023-03-02T17:00:22.732Z,4.78
2023-03-02T17:05:27.030Z,5.97
2023-03-02T17:10:30.384Z,5.28
2023-03-02T17:15:36.472Z,5.75
2023-03-02T17:20:39.801Z,5.72
2023-03-02T17:25:42.533Z,8.73
2023-03-02T17:30:46.956Z,9.55
2023-03-02T17:35:50.160Z,13.77
2023-03-02T17:40:53.606Z,10.13
2023-03-02T17:45:57.931Z,7.05
2023-03-02T17:51:01.344Z,6.50
2023-03-02T17:56:04.251Z,7.07
2023-03-02T18:48:02.347Z,20.10
2023-03-02T18:53:05.116Z,15.32
2023-03-02T18:58:10.836Z,17.23
2023-03-02T19:03:16.005Z,13.10
2023-03-02T19:08:20.618Z,12.07
2023-03-02T19:13:24.389Z,16.00
2023-03-02T19:18:30.941Z,16.40
2023-03-02T19:23:34.392Z,16.25
2023-03-02T19:28:38.458Z,17.65
2023-03-02T19:33:45.125Z,23.15
2023-03-02T19:38:48.462Z,19.23
2023-03-02T19:43:52.698Z,16.55
2023-03-02T19:48:56.962Z,13.02
2023-03-02T19:54:00.663Z,15.00
2023-03-02T19:59:03.644Z,18.23
2023-03-02T20:04:08.055Z,19.38
2023-03-02T20:09:13.048Z,19.75
2023-03-02T20:14:31.237Z,18.30
2023-03-02T20:19:37.151Z,18.77
2023-03-02T20:24:40.356Z,13.75
2023-03-02T20:29:44.196Z,10.20
2023-03-02T20:34:48.620Z,6.75
2023-03-02T20:39:51.972Z,7.20
2023-03-02T20:44:56.346Z,17.25
2023-03-02T20:50:00.877Z,22.08
2023-03-02T20:55:04.143Z,23.67
2023-03-02T21:00:11.878Z,23.85
2023-03-02T21:05:17.130Z,20.30
2023-03-02T21:10:25.742Z,20.23
2023-03-02T21:15:29.514Z,19.07
2023-03-02T21:20:36.711Z,16.70
2023-03-02T21:30:45.150Z,16.70
2023-03-02T21:35:49.295Z,17.20
2023-03-02T21:40:52.122Z,18.73
2023-03-02T21:45:55.395Z,15.43
2023-03-02T21:50:59.892Z,14.90
2023-03-02T21:56:02.726Z,16.35
2023-03-02T22:01:05.973Z,32.40
2023-03-02T22:06:15.825Z,17.77
2023-03-02T22:11:22.653Z,15.77
2023-03-02T22:16:28.064Z,18.92
2023-03-02T22:21:34.682Z,17.95
2023-03-02T22:26:40.250Z,20.15
2023-03-02T22:31:47.511Z,17.65
2023-03-02T22:36:51.767Z,18.55
2023-03-02T22:41:57.768Z,17.88
2023-03-02T22:47:01.160Z,18.55
2023-03-02T22:52:14.113Z,16.83
2023-03-02T22:57:32.101Z,14.10
2023-03-02T23:02:38.116Z,15.45
2023-03-02T23:07:42.341Z,19.15
2023-03-02T23:12:45.621Z,20.08
2023-03-02T23:17:48.508Z,21.90
2023-03-02T23:22:52.632Z,18.08
2023-03-02T23:27:55.637Z,15.15
2023-03-02T23:32:58.479Z,18.38
2023-03-02T23:38:02.866Z,17.98
2023-03-02T23:43:05.830Z,18.20
2023-03-02T23:48:08.875Z,19.25
2023-03-02T23:53:13.464Z,16.05
2023-03-02T23:58:16.440Z,16.35
